Time,TemperatureF,DewpointF,PressureIn,WindDirection,WindDirectionDegrees,WindSpeedMPH,WindSpeedGustMPH,Humidity,HourlyPrecipIn,Conditions,Clouds,dailyrainin,SoftwareType,DateUTC
2013-07-11 00:00:00,75.9,71.1,29.83,WNW,285,0.0,4.9,85,0.00,,,0.00,VWS V14.01,2013-07-11 04:00:00,
2013-07-11 00:01:00,75.9,71.1,29.83,WNW,285,0.0,0.0,85,0.00,,,0.00,VWS V14.01,2013-07-11 04:01:00,
2013-07-11 00:02:00,75.9,71.1,29.83,WNW,285,0.0,0.0,85,0.00,,,0.00,VWS V14.01,2013-07-11 04:02:00,
2013-07-11 00:05:00,75.9,71.1,29.83,WNW,285,0.0,2.7,85,0.00,,,0.00,VWS V14.01,2013-07-11 04:05:00,
2013-07-11 00:07:00,75.9,71.4,29.83,WNW,285,0.0,0.0,86,0.00,,,0.00,VWS V14.01,2013-07-11 04:07:00,
2013-07-11 00:10:00,75.9,71.4,29.83,WNW,285,0.0,0.0,86,0.00,,,0.00,VWS V14.01,2013-07-11 04:10:00,
2013-07-11 00:12:00,75.9,71.4,29.83,WNW,285,0.0,3.1,86,0.00,,,0.00,VWS V14.01,2013-07-11 04:12:00,
2013-07-11 00:15:00,75.7,71.3,29.83,WNW,285,0.0,3.1,86,0.00,,,0.00,VWS V14.01,2013-07-11 04:15:00,
2013-07-11 00:17:00,75.7,71.3,29.83,WNW,285,0.0,2.2,86,0.00,,,0.00,VWS V14.01,2013-07-11 04:17:00,
2013-07-11 00:20:00,75.7,71.3,29.83,WNW,284,0.0,2.2,86,0.00,,,0.00,VWS V14.01,2013-07-11 04:20:00,
2013-07-11 00:22:00,75.7,71.3,29.83,WNW,285,0.0,0.0,86,0.00,,,0.00,VWS V14.01,2013-07-11 04:22:00,
2013-07-11 00:25:00,75.7,71.3,29.83,WNW,285,0.0,0.0,86,0.00,,,0.00,VWS V14.01,2013-07-11 04:25:00,
2013-07-11 00:27:00,75.7,71.3,29.83,WNW,285,0.0,0.0,86,0.00,,,0.00,VWS V14.01,2013-07-11 04:27:00,
2013-07-11 00:30:00,75.7,71.3,29.83,WNW,285,0.0,0.0,86,0.00,,,0.00,VWS V14.01,2013-07-11 04:30:00,
2013-07-11 00:32:00,75.7,71.3,29.83,WNW,285,0.0,0.0,86,0.00,,,0.00,VWS V14.01,2013-07-11 04:32:00,
2013-07-11 00:35:00,75.7,71.3,29.83,WNW,285,0.0,0.0,86,0.00,,,0.00,VWS V14.01,2013-07-11 04:35:00,
2013-07-11 00:37:00,75.7,71.6,29.83,WNW,285,0.0,2.7,87,0.00,,,0.00,VWS V14.01,2013-07-11 04:37:00,
2013-07-11 00:40:00,75.7,71.6,29.83,WNW,285,3.1,3.1,87,0.00,,,0.00,VWS V14.01,2013-07-11 04:40:00,
2013-07-11 00:42:00,75.7,71.6,29.83,WNW,285,0.0,3.1,87,0.00,,,0.00,VWS V14.01,2013-07-11 04:42:00,
2013-07-11 00:45:00,75.7,71.6,29.83,WNW,285,0.0,3.1,87,0.00,,,0.00,VWS V14.01,2013-07-11 04:45:00,
2013-07-11 00:47:00,75.7,71.6,29.83,WNW,285,0.0,0.0,87,0.00,,,0.00,VWS V14.01,2013-07-11 04:47:00,
2013-07-11 00:50:00,75.7,71.6,29.83,WNW,285,2.7,3.6,87,0.00,,,0.00,VWS V14.01,2013-07-11 04:50:00,
2013-07-11 00:52:00,75.7,71.6,29.83,WNW,285,0.0,4.0,87,0.00,,,0.00,VWS V14.01,2013-07-11 04:52:00,
2013-07-11 00:55:00,75.7,71.6,29.83,WNW,285,0.0,4.0,87,0.00,,,0.00,VWS V14.01,2013-07-11 04:55:00,
2013-07-11 00:57:00,75.6,71.4,29.83,WNW,285,0.0,3.1,87,0.00,,,0.00,VWS V14.01,2013-07-11 04:57:00,
2013-07-11 01:00:00,75.6,71.4,29.83,WNW,285,0.0,3.1,87,0.00,,,0.00,VWS V14.01,2013-07-11 05:00:00,
2013-07-11 01:02:00,75.6,71.4,29.83,WNW,285,0.0,2.7,87,0.00,,,0.00,VWS V14.01,2013-07-11 05:02:00,
2013-07-11 01:05:00,75.6,71.4,29.83,WNW,285,2.2,4.0,87,0.00,,,0.00,VWS V14.01,2013-07-11 05:05:00,
2013-07-11 01:07:00,75.6,71.4,29.83,WNW,284,0.0,3.6,87,0.00,,,0.00,VWS V14.01,2013-07-11 05:07:00,
2013-07-11 01:10:00,75.6,71.4,29.83,WNW,284,3.6,3.6,87,0.00,,,0.00,VWS V14.01,2013-07-11 05:10:00,
2013-07-11 01:12:00,75.6,71.1,29.83,West,260,4.0,4.0,86,0.00,,,0.00,VWS V14.01,2013-07-11 05:12:00,
2013-07-11 01:15:00,75.6,71.1,29.83,WSW,252,0.0,7.6,86,0.00,,,0.00,VWS V14.01,2013-07-11 05:15:00,
2013-07-11 01:17:00,75.6,71.1,29.83,WSW,252,0.0,2.7,86,0.00,,,0.00,VWS V14.01,2013-07-11 05:17:00,
2013-07-11 01:20:00,75.6,71.1,29.83,WSW,252,2.2,2.7,86,0.00,,,0.00,VWS V14.01,2013-07-11 05:20:00,
2013-07-11 01:22:00,75.6,71.1,29.83,WSW,252,0.0,2.7,86,0.00,,,0.00,VWS V14.01,2013-07-11 05:22:00,
2013-07-11 01:25:00,75.6,71.1,29.83,WSW,252,0.0,2.7,86,0.00,,,0.00,VWS V14.01,2013-07-11 05:25:00,
2013-07-11 01:27:00,75.6,71.1,29.83,WSW,252,0.0,0.0,86,0.00,,,0.00,VWS V14.01,2013-07-11 05:27:00,
2013-07-11 01:30:00,75.6,71.1,29.83,WSW,252,0.0,0.0,86,0.00,,,0.00,VWS V14.01,2013-07-11 05:30:00,
2013-07-11 01:32:00,75.6,71.1,29.83,WSW,252,0.0,2.7,86,0.00,,,0.00,VWS V14.01,2013-07-11 05:32:00,
2013-07-11 01:35:00,75.2,70.4,29.83,WSW,252,0.0,2.7,85,0.00,,,0.00,VWS V14.01,2013-07-11 05:35:00,
2013-07-11 01:37:00,75.2,70.4,29.83,WSW,252,0.0,0.0,85,0.00,,,0.00,VWS V14.01,2013-07-11 05:37:00,
2013-07-11 01:40:00,75.2,70.4,29.83,WSW,252,0.0,0.0,85,0.00,,,0.00,VWS V14.01,2013-07-11 05:40:00,
2013-07-11 01:42:00,75.2,70.4,29.83,WSW,252,0.0,0.0,85,0.00,,,0.00,VWS V14.01,2013-07-11 05:42:00,
2013-07-11 01:45:00,75.2,70.4,29.83,WSW,252,0.0,0.0,85,0.00,,,0.00,VWS V14.01,2013-07-11 05:45:00,
2013-07-11 01:47:00,75.2,70.4,29.83,WSW,252,0.0,0.0,85,0.00,,,0.00,VWS V14.01,2013-07-11 05:47:00,
2013-07-11 01:50:00,74.8,70.4,29.83,WSW,252,0.0,0.0,86,0.00,,,0.00,VWS V14.01,2013-07-11 05:50:00,
2013-07-11 01:52:00,74.8,70.4,29.83,WSW,252,0.0,0.0,86,0.00,,,0.00,VWS V14.01,2013-07-11 05:52:00,
2013-07-11 01:55:00,74.8,70.4,29.83,WSW,252,0.0,0.0,86,0.00,,,0.00,VWS V14.01,2013-07-11 05:55:00,
2013-07-11 01:57:00,74.8,70.4,29.83,WSW,252,0.0,0.0,86,0.00,,,0.00,VWS V14.01,2013-07-11 05:57:00,
2013-07-11 02:00:00,74.8,70.4,29.83,WSW,252,0.0,0.0,86,0.00,,,0.00,VWS V14.01,2013-07-11 06:00:00,
2013-07-11 02:02:00,74.8,70.4,29.83,WSW,252,0.0,0.0,86,0.00,,,0.00,VWS V14.01,2013-07-11 06:02:00,
2013-07-11 02:05:00,74.1,70.0,29.83,WSW,252,0.0,0.0,87,0.00,,,0.00,VWS V14.01,2013-07-11 06:05:00,
2013-07-11 02:07:00,74.1,70.0,29.83,WSW,252,0.0,0.0,87,0.00,,,0.00,VWS V14.01,2013-07-11 06:07:00,
2013-07-11 02:10:00,74.1,70.0,29.83,WSW,252,0.0,0.0,87,0.00,,,0.00,VWS V14.01,2013-07-11 06:10:00,
2013-07-11 02:12:00,73.9,69.8,29.83,WSW,252,0.0,0.0,87,0.00,,,0.00,VWS V14.01,2013-07-11 06:12:00,
2013-07-11 02:15:00,73.9,69.8,29.83,WSW,252,0.0,0.0,87,0.00,,,0.00,VWS V14.01,2013-07-11 06:15:00,
2013-07-11 02:17:00,73.9,69.8,29.83,WSW,252,0.0,0.0,87,0.00,,,0.00,VWS V14.01,2013-07-11 06:17:00,
2013-07-11 02:20:00,73.8,69.7,29.83,WSW,252,0.0,0.0,87,0.00,,,0.00,VWS V14.01,2013-07-11 06:20:00,
2013-07-11 02:22:00,73.8,69.7,29.83,WSW,252,0.0,0.0,87,0.00,,,0.00,VWS V14.01,2013-07-11 06:22:00,
2013-07-11 02:25:00,73.8,69.7,29.83,WSW,252,0.0,0.0,87,0.00,,,0.00,VWS V14.01,2013-07-11 06:25:00,
2013-07-11 02:27:00,73.8,69.7,29.83,WSW,252,0.0,0.0,87,0.00,,,0.00,VWS V14.01,2013-07-11 06:27:00,
2013-07-11 02:30:00,73.8,69.7,29.83,WSW,252,0.0,0.0,87,0.00,,,0.00,VWS V14.01,2013-07-11 06:30:00,
2013-07-11 02:32:00,73.8,69.7,29.83,WSW,252,0.0,0.0,87,0.00,,,0.00,VWS V14.01,2013-07-11 06:32:00,
2013-07-11 02:35:00,73.8,69.7,29.83,WSW,252,0.0,0.0,87,0.00,,,0.00,VWS V14.01,2013-07-11 06:35:00,
2013-07-11 02:37:00,73.6,69.8,29.83,WSW,252,0.0,0.0,88,0.00,,,0.00,VWS V14.01,2013-07-11 06:37:00,
2013-07-11 02:40:00,73.6,69.8,29.83,WSW,252,0.0,0.0,88,0.00,,,0.00,VWS V14.01,2013-07-11 06:40:00,
2013-07-11 02:42:00,73.6,69.8,29.83,WSW,252,0.0,0.0,88,0.00,,,0.00,VWS V14.01,2013-07-11 06:42:00,
2013-07-11 02:45:00,73.6,69.8,29.83,WSW,252,0.0,0.0,88,0.00,,,0.00,VWS V14.01,2013-07-11 06:45:00,
2013-07-11 02:47:00,73.6,69.8,29.83,WSW,252,0.0,0.0,88,0.00,,,0.00,VWS V14.01,2013-07-11 06:47:00,
2013-07-11 02:50:00,73.6,69.8,29.83,WSW,252,0.0,0.0,88,0.00,,,0.00,VWS V14.01,2013-07-11 06:50:00,
2013-07-11 02:52:00,73.6,69.8,29.83,WSW,252,0.0,0.0,88,0.00,,,0.00,VWS V14.01,2013-07-11 06:52:00,
2013-07-11 02:55:00,73.6,69.8,29.83,WSW,252,0.0,0.0,88,0.00,,,0.00,VWS V14.01,2013-07-11 06:55:00,
2013-07-11 02:57:00,73.6,69.8,29.83,WSW,252,0.0,0.0,88,0.00,,,0.00,VWS V14.01,2013-07-11 06:57:00,
2013-07-11 03:00:00,73.6,69.8,29.83,WSW,252,0.0,0.0,88,0.00,,,0.00,VWS V14.01,2013-07-11 07:00:00,
2013-07-11 03:02:00,73.6,69.8,29.83,WSW,252,0.0,0.0,88,0.00,,,0.00,VWS V14.01,2013-07-11 07:02:00,
2013-07-11 03:05:00,73.6,69.8,29.83,WSW,252,0.0,0.0,88,0.00,,,0.00,VWS V14.01,2013-07-11 07:05:00,
2013-07-11 03:07:00,73.4,69.6,29.83,WSW,252,0.0,0.0,88,0.00,,,0.00,VWS V14.01,2013-07-11 07:07:00,
2013-07-11 03:10:00,73.4,69.6,29.83,WSW,252,0.0,0.0,88,0.00,,,0.00,VWS V14.01,2013-07-11 07:10:00,
2013-07-11 03:12:00,73.4,69.6,29.83,WSW,252,0.0,0.0,88,0.00,,,0.00,VWS V14.01,2013-07-11 07:12:00,
2013-07-11 03:15:00,73.2,69.8,29.83,WSW,252,0.0,0.0,89,0.00,,,0.00,VWS V14.01,2013-07-11 07:15:00,
2013-07-11 03:17:00,73.2,69.8,29.83,WSW,252,0.0,0.0,89,0.00,,,0.00,VWS V14.01,2013-07-11 07:17:00,
2013-07-11 03:20:00,73.2,69.8,29.83,WSW,252,0.0,0.0,89,0.00,,,0.00,VWS V14.01,2013-07-11 07:20:00,
2013-07-11 03:23:00,73.2,69.8,29.83,WSW,252,2.7,2.7,89,0.00,,,0.00,VWS V14.01,2013-07-11 07:23:00,
2013-07-11 03:25:00,73.2,69.8,29.83,WSW,252,0.0,2.7,89,0.00,,,0.00,VWS V14.01,2013-07-11 07:25:00,
2013-07-11 03:28:00,73.2,69.8,29.83,WSW,252,0.0,0.0,89,0.00,,,0.00,VWS V14.01,2013-07-11 07:28:00,
2013-07-11 03:30:00,73.2,69.8,29.83,WSW,252,0.0,2.7,89,0.00,,,0.00,VWS V14.01,2013-07-11 07:30:00,
2013-07-11 03:33:00,73.4,70.0,29.83,WSW,252,2.2,4.0,89,0.00,,,0.00,VWS V14.01,2013-07-11 07:33:00,
2013-07-11 03:35:00,73.4,70.0,29.83,WSW,252,4.0,4.0,89,0.00,,,0.00,VWS V14.01,2013-07-11 07:35:00,
2013-07-11 03:38:00,73.4,70.0,29.83,WSW,252,0.0,4.0,89,0.00,,,0.00,VWS V14.01,2013-07-11 07:38:00,
2013-07-11 03:40:00,73.4,70.0,29.83,WSW,252,0.0,4.0,89,0.00,,,0.00,VWS V14.01,2013-07-11 07:40:00,
2013-07-11 03:43:00,73.4,70.0,29.83,WSW,252,0.0,0.0,89,0.00,,,0.00,VWS V14.01,2013-07-11 07:43:00,
2013-07-11 03:45:00,73.4,70.0,29.83,WSW,252,0.0,0.0,89,0.00,,,0.00,VWS V14.01,2013-07-11 07:45:00,
2013-07-11 03:48:00,73.4,70.0,29.83,WSW,252,0.0,0.0,89,0.00,,,0.00,VWS V14.01,2013-07-11 07:48:00,
2013-07-11 03:50:00,73.4,70.0,29.83,WSW,252,0.0,0.0,89,0.00,,,0.00,VWS V14.01,2013-07-11 07:50:00,
2013-07-11 03:53:00,73.4,70.3,29.83,WSW,252,0.0,0.0,90,0.00,,,0.00,VWS V14.01,2013-07-11 07:53:00,
2013-07-11 03:55:00,73.4,70.3,29.83,WSW,252,0.0,0.0,90,0.00,,,0.00,VWS V14.01,2013-07-11 07:55:00,
2013-07-11 03:58:00,73.4,70.3,29.83,WSW,252,0.0,0.0,90,0.00,,,0.00,VWS V14.01,2013-07-11 07:58:00,
2013-07-11 04:00:00,73.4,70.3,29.83,WSW,252,0.0,0.0,90,0.00,,,0.00,VWS V14.01,2013-07-11 08:00:00,
2013-07-11 04:03:00,73.4,70.3,29.83,WSW,252,0.0,0.0,90,0.00,,,0.00,VWS V14.01,2013-07-11 08:03:00,
2013-07-11 04:05:00,73.4,70.3,29.83,WSW,252,0.0,0.0,90,0.00,,,0.00,VWS V14.01,2013-07-11 08:05:00,
2013-07-11 04:08:00,73.4,70.3,29.83,WSW,252,0.0,0.0,90,0.00,,,0.00,VWS V14.01,2013-07-11 08:08:00,
2013-07-11 04:10:00,73.4,70.3,29.83,WSW,252,0.0,0.0,90,0.00,,,0.00,VWS V14.01,2013-07-11 08:10:00,
2013-07-11 04:13:00,73.4,70.3,29.83,WSW,252,0.0,0.0,90,0.00,,,0.00,VWS V14.01,2013-07-11 08:13:00,
2013-07-11 04:15:00,73.4,70.3,29.83,WSW,252,0.0,0.0,90,0.00,,,0.00,VWS V14.01,2013-07-11 08:15:00,
2013-07-11 04:18:00,73.4,70.3,29.83,WSW,252,0.0,0.0,90,0.00,,,0.00,VWS V14.01,2013-07-11 08:18:00,
2013-07-11 04:20:00,73.4,70.3,29.83,WSW,252,0.0,0.0,90,0.00,,,0.00,VWS V14.01,2013-07-11 08:20:00,
2013-07-11 04:23:00,73.4,70.3,29.83,WSW,252,0.0,0.0,90,0.00,,,0.00,VWS V14.01,2013-07-11 08:23:00,
2013-07-11 04:25:00,73.4,70.3,29.83,WSW,252,0.0,0.0,90,0.00,,,0.00,VWS V14.01,2013-07-11 08:25:00,
2013-07-11 04:28:00,73.4,70.3,29.83,WSW,252,0.0,0.0,90,0.00,,,0.00,VWS V14.01,2013-07-11 08:28:00,
2013-07-11 04:30:00,73.4,70.3,29.83,WSW,252,0.0,0.0,90,0.00,,,0.00,VWS V14.01,2013-07-11 08:30:00,
2013-07-11 04:33:00,73.4,70.3,29.83,WSW,252,0.0,0.0,90,0.00,,,0.00,VWS V14.01,2013-07-11 08:33:00,
2013-07-11 04:35:00,73.4,70.3,29.83,WSW,252,0.0,0.0,90,0.00,,,0.00,VWS V14.01,2013-07-11 08:35:00,
2013-07-11 04:38:00,73.4,70.3,29.83,WSW,253,0.0,0.0,90,0.00,,,0.00,VWS V14.01,2013-07-11 08:38:00,
2013-07-11 04:40:00,73.4,70.3,29.83,WSW,252,0.0,0.0,90,0.00,,,0.00,VWS V14.01,2013-07-11 08:40:00,
2013-07-11 04:43:00,73.4,70.3,29.83,WSW,252,0.0,0.0,90,0.00,,,0.00,VWS V14.01,2013-07-11 08:43:00,
2013-07-11 04:45:00,73.4,70.3,29.83,WSW,252,0.0,0.0,90,0.00,,,0.00,VWS V14.01,2013-07-11 08:45:00,
2013-07-11 04:48:00,73.4,70.3,29.83,WSW,252,0.0,0.0,90,0.00,,,0.00,VWS V14.01,2013-07-11 08:48:00,
2013-07-11 04:50:00,73.4,70.3,29.83,WSW,252,0.0,0.0,90,0.00,,,0.00,VWS V14.01,2013-07-11 08:50:00,
2013-07-11 04:53:00,73.4,70.3,29.83,WSW,252,0.0,0.0,90,0.00,,,0.00,VWS V14.01,2013-07-11 08:53:00,
2013-07-11 04:55:00,73.4,70.3,29.83,WSW,252,0.0,0.0,90,0.00,,,0.00,VWS V14.01,2013-07-11 08:55:00,
2013-07-11 04:58:00,73.4,70.6,29.83,WSW,252,0.0,4.0,91,0.00,,,0.00,VWS V14.01,2013-07-11 08:58:00,
2013-07-11 05:00:00,73.4,70.6,29.83,WSW,252,0.0,4.0,91,0.00,,,0.00,VWS V14.01,2013-07-11 09:00:00,
2013-07-11 05:03:00,73.6,70.8,29.83,WSW,253,0.0,3.1,91,0.00,,,0.00,VWS V14.01,2013-07-11 09:03:00,
2013-07-11 05:05:00,73.6,70.8,29.83,WSW,253,0.0,3.1,91,0.00,,,0.00,VWS V14.01,2013-07-11 09:05:00,
2013-07-11 05:08:00,73.8,71.0,29.83,WSW,253,0.0,0.0,91,0.00,,,0.00,VWS V14.01,2013-07-11 09:08:00,
2013-07-11 05:10:00,73.8,71.0,29.83,WSW,253,3.1,3.1,91,0.00,,,0.00,VWS V14.01,2013-07-11 09:10:00,
2013-07-11 05:13:00,73.8,71.0,29.83,WSW,254,0.0,4.0,91,0.00,,,0.00,VWS V14.01,2013-07-11 09:13:00,
2013-07-11 05:15:00,73.8,71.0,29.83,WSW,254,0.0,4.0,91,0.00,,,0.00,VWS V14.01,2013-07-11 09:15:00,
2013-07-11 05:18:00,73.9,71.2,29.83,WSW,258,0.0,4.9,91,0.00,,,0.00,VWS V14.01,2013-07-11 09:18:00,
2013-07-11 05:20:00,73.9,71.2,29.83,WSW,258,3.6,4.9,91,0.00,,,0.00,VWS V14.01,2013-07-11 09:20:00,
2013-07-11 05:23:00,73.9,71.2,29.83,WSW,258,3.1,4.9,91,0.00,,,0.00,VWS V14.01,2013-07-11 09:23:00,
2013-07-11 05:25:00,73.9,71.2,29.83,WSW,258,0.0,4.9,91,0.00,,,0.00,VWS V14.01,2013-07-11 09:25:00,
2013-07-11 05:28:00,73.9,71.2,29.83,WSW,258,0.0,4.0,91,0.00,,,0.00,VWS V14.01,2013-07-11 09:28:00,
2013-07-11 05:30:00,73.9,71.2,29.83,WSW,258,0.0,4.0,91,0.00,,,0.00,VWS V14.01,2013-07-11 09:30:00,
2013-07-11 05:33:00,73.9,71.2,29.83,WSW,258,0.0,3.1,91,0.00,,,0.00,VWS V14.01,2013-07-11 09:33:00,
2013-07-11 05:35:00,73.9,71.2,29.83,WSW,258,0.0,3.1,91,0.00,,,0.00,VWS V14.01,2013-07-11 09:35:00,
2013-07-11 05:38:00,73.9,71.2,29.83,WSW,258,0.0,0.0,91,0.00,,,0.00,VWS V14.01,2013-07-11 09:38:00,
2013-07-11 05:40:00,73.9,71.2,29.83,WSW,258,0.0,0.0,91,0.00,,,0.00,VWS V14.01,2013-07-11 09:40:00,
2013-07-11 05:44:00,73.8,71.0,29.83,WSW,258,0.0,0.0,91,0.00,,,0.00,VWS V14.01,2013-07-11 09:44:00,
2013-07-11 05:45:00,73.8,71.0,29.83,WSW,258,0.0,0.0,91,0.00,,,0.00,VWS V14.01,2013-07-11 09:45:00,
2013-07-11 05:49:00,73.8,71.0,29.83,WSW,258,0.0,0.0,91,0.00,,,0.00,VWS V14.01,2013-07-11 09:49:00,
2013-07-11 05:50:00,73.8,71.0,29.83,WSW,258,0.0,0.0,91,0.00,,,0.00,VWS V14.01,2013-07-11 09:50:00,
2013-07-11 05:54:00,73.8,71.0,29.83,WSW,258,0.0,0.0,91,0.00,,,0.00,VWS V14.01,2013-07-11 09:54:00,
2013-07-11 05:55:00,73.8,71.0,29.83,WSW,258,0.0,0.0,91,0.00,,,0.00,VWS V14.01,2013-07-11 09:55:00,
2013-07-11 05:58:00,73.6,70.8,29.83,WSW,258,0.0,0.0,91,0.00,,,0.00,VWS V14.01,2013-07-11 09:58:00,
2013-07-11 06:00:00,73.6,70.8,29.83,WSW,258,0.0,0.0,91,0.00,,,0.00,VWS V14.01,2013-07-11 10:00:00,
2013-07-11 06:03:00,73.6,70.8,29.83,WSW,258,0.0,0.0,91,0.00,,,0.00,VWS V14.01,2013-07-11 10:03:00,
2013-07-11 06:05:00,73.6,70.8,29.83,WSW,258,2.7,2.7,91,0.00,,,0.00,VWS V14.01,2013-07-11 10:05:00,
2013-07-11 06:09:00,73.6,70.8,29.83,WSW,258,0.0,3.1,91,0.00,,,0.00,VWS V14.01,2013-07-11 10:09:00,
2013-07-11 06:10:00,73.6,70.8,29.83,WSW,258,0.0,3.1,91,0.00,,,0.00,VWS V14.01,2013-07-11 10:10:00,
2013-07-11 06:14:00,73.6,70.8,29.83,WSW,258,0.0,0.0,91,0.00,,,0.00,VWS V14.01,2013-07-11 10:14:00,
2013-07-11 06:15:00,73.6,70.8,29.83,WSW,258,0.0,0.0,91,0.00,,,0.00,VWS V14.01,2013-07-11 10:15:00,
2013-07-11 06:19:00,73.6,70.8,29.83,WSW,258,0.0,0.0,91,0.00,,,0.00,VWS V14.01,2013-07-11 10:19:00,
2013-07-11 06:20:00,73.6,70.8,29.83,WSW,258,0.0,0.0,91,0.00,,,0.00,VWS V14.01,2013-07-11 10:20:00,
2013-07-11 06:24:00,73.6,70.8,29.83,WSW,258,0.0,0.0,91,0.00,,,0.00,VWS V14.01,2013-07-11 10:24:00,
2013-07-11 06:25:00,73.6,70.8,29.83,WSW,258,0.0,0.0,91,0.00,,,0.00,VWS V14.01,2013-07-11 10:25:00,
2013-07-11 06:29:00,73.6,70.5,29.86,WSW,258,0.0,0.0,90,0.00,,,0.00,VWS V14.01,2013-07-11 10:29:00,
2013-07-11 06:30:00,73.6,70.5,29.86,WSW,258,0.0,0.0,90,0.00,,,0.00,VWS V14.01,2013-07-11 10:30:00,
2013-07-11 06:34:00,73.6,70.5,29.86,WSW,258,0.0,0.0,90,0.00,,,0.00,VWS V14.01,2013-07-11 10:34:00,
2013-07-11 06:35:00,73.6,70.5,29.86,WSW,258,0.0,0.0,90,0.00,,,0.00,VWS V14.01,2013-07-11 10:35:00,
2013-07-11 06:39:00,73.6,70.5,29.86,WSW,258,0.0,0.0,90,0.00,,,0.00,VWS V14.01,2013-07-11 10:39:00,
2013-07-11 06:40:00,73.6,70.5,29.86,WSW,258,0.0,0.0,90,0.00,,,0.00,VWS V14.01,2013-07-11 10:40:00,
2013-07-11 06:44:00,73.6,70.5,29.86,WSW,258,0.0,0.0,90,0.00,,,0.00,VWS V14.01,2013-07-11 10:44:00,
2013-07-11 06:45:00,73.6,70.5,29.86,WSW,258,0.0,0.0,90,0.00,,,0.00,VWS V14.01,2013-07-11 10:45:00,
2013-07-11 06:49:00,73.6,70.5,29.86,WSW,258,0.0,0.0,90,0.00,,,0.00,VWS V14.01,2013-07-11 10:49:00,
2013-07-11 06:50:00,73.6,70.5,29.86,WSW,258,0.0,0.0,90,0.00,,,0.00,VWS V14.01,2013-07-11 10:50:00,
2013-07-11 06:54:00,73.6,70.5,29.86,WSW,258,0.0,0.0,90,0.00,,,0.00,VWS V14.01,2013-07-11 10:54:00,
2013-07-11 06:55:00,73.6,70.5,29.86,WSW,258,0.0,0.0,90,0.00,,,0.00,VWS V14.01,2013-07-11 10:55:00,
2013-07-11 06:59:00,73.6,70.5,29.86,WSW,258,0.0,0.0,90,0.00,,,0.00,VWS V14.01,2013-07-11 10:59:00,
2013-07-11 07:00:00,73.6,70.5,29.86,WSW,258,0.0,0.0,90,0.00,,,0.00,VWS V14.01,2013-07-11 11:00:00,
2013-07-11 07:04:00,73.6,70.5,29.86,WSW,258,0.0,0.0,90,0.00,,,0.00,VWS V14.01,2013-07-11 11:04:00,
2013-07-11 07:05:00,73.6,70.5,29.86,WSW,258,0.0,0.0,90,0.00,,,0.00,VWS V14.01,2013-07-11 11:05:00,
2013-07-11 07:09:00,73.6,70.5,29.86,WSW,258,0.0,0.0,90,0.00,,,0.00,VWS V14.01,2013-07-11 11:09:00,
2013-07-11 07:10:00,73.6,70.5,29.86,WSW,258,0.0,0.0,90,0.00,,,0.00,VWS V14.01,2013-07-11 11:10:00,
2013-07-11 07:14:00,73.6,70.5,29.86,WSW,258,0.0,0.0,90,0.00,,,0.00,VWS V14.01,2013-07-11 11:14:00,
2013-07-11 07:15:00,73.6,70.5,29.86,WSW,258,0.0,0.0,90,0.00,,,0.00,VWS V14.01,2013-07-11 11:15:00,
2013-07-11 07:19:00,73.6,70.5,29.86,WSW,258,2.2,3.1,90,0.00,,,0.00,VWS V14.01,2013-07-11 11:19:00,
2013-07-11 07:20:00,73.6,70.5,29.86,WSW,258,0.0,3.1,90,0.00,,,0.00,VWS V14.01,2013-07-11 11:20:00,
2013-07-11 07:24:00,73.6,70.5,29.86,WSW,258,0.0,0.0,90,0.00,,,0.00,VWS V14.01,2013-07-11 11:24:00,
2013-07-11 07:25:00,73.6,70.5,29.86,WSW,258,0.0,0.0,90,0.00,,,0.00,VWS V14.01,2013-07-11 11:25:00,
2013-07-11 07:29:00,73.6,70.5,29.86,WSW,258,0.0,2.2,90,0.00,,,0.00,VWS V14.01,2013-07-11 11:29:00,
2013-07-11 07:30:00,73.6,70.5,29.86,WSW,258,0.0,2.2,90,0.00,,,0.00,VWS V14.01,2013-07-11 11:30:00,
2013-07-11 07:34:00,73.6,70.5,29.86,WSW,258,0.0,2.7,90,0.00,,,0.00,VWS V14.01,2013-07-11 11:34:00,
2013-07-11 07:35:00,73.6,70.5,29.86,WSW,258,0.0,2.7,90,0.00,,,0.00,VWS V14.01,2013-07-11 11:35:00,
2013-07-11 07:39:00,73.6,70.5,29.86,WSW,239,0.0,3.1,90,0.00,,,0.00,VWS V14.01,2013-07-11 11:39:00,
2013-07-11 07:40:00,73.6,70.5,29.86,WSW,239,0.0,3.1,90,0.00,,,0.00,VWS V14.01,2013-07-11 11:40:00,
2013-07-11 07:44:00,73.6,70.5,29.86,WSW,239,0.0,0.0,90,0.00,,,0.00,VWS V14.01,2013-07-11 11:44:00,
2013-07-11 07:45:00,73.6,70.5,29.86,WSW,239,0.0,0.0,90,0.00,,,0.00,VWS V14.01,2013-07-11 11:45:00,
2013-07-11 07:49:00,73.6,70.5,29.86,SW,236,3.6,3.6,90,0.00,,,0.00,VWS V14.01,2013-07-11 11:49:00,
2013-07-11 07:50:00,73.6,70.5,29.86,SW,236,0.0,3.6,90,0.00,,,0.00,VWS V14.01,2013-07-11 11:50:00,
2013-07-11 07:54:00,73.6,70.5,29.86,WSW,237,0.0,0.0,90,0.00,,,0.00,VWS V14.01,2013-07-11 11:54:00,
2013-07-11 07:55:00,73.6,70.5,29.86,SW,236,0.0,0.0,90,0.00,,,0.00,VWS V14.01,2013-07-11 11:55:00,
2013-07-11 07:59:00,73.6,70.5,29.86,SW,236,0.0,3.1,90,0.00,,,0.00,VWS V14.01,2013-07-11 11:59:00,
2013-07-11 08:00:00,73.6,70.5,29.86,SW,236,0.0,3.1,90,0.00,,,0.00,VWS V14.01,2013-07-11 12:00:00,
2013-07-11 08:04:00,73.6,70.5,29.86,SW,236,0.0,0.0,90,0.00,,,0.00,VWS V14.01,2013-07-11 12:04:00,
2013-07-11 08:05:00,73.6,70.5,29.86,SW,236,0.0,0.0,90,0.00,,,0.00,VWS V14.01,2013-07-11 12:05:00,
2013-07-11 08:09:00,73.6,70.5,29.86,SW,236,0.0,0.0,90,0.00,,,0.00,VWS V14.01,2013-07-11 12:09:00,
2013-07-11 08:10:00,73.6,70.5,29.86,SW,236,0.0,0.0,90,0.00,,,0.00,VWS V14.01,2013-07-11 12:10:00,
2013-07-11 08:14:00,73.6,70.5,29.86,SW,236,0.0,0.0,90,0.00,,,0.00,VWS V14.01,2013-07-11 12:14:00,
2013-07-11 08:15:00,73.6,70.5,29.86,WSW,237,0.0,0.0,90,0.00,,,0.00,VWS V14.01,2013-07-11 12:15:00,
2013-07-11 08:19:00,73.6,70.5,29.86,SW,236,0.0,0.0,90,0.00,,,0.00,VWS V14.01,2013-07-11 12:19:00,
2013-07-11 08:20:00,73.6,70.5,29.86,SW,236,0.0,0.0,90,0.00,,,0.00,VWS V14.01,2013-07-11 12:20:00,
2013-07-11 08:24:00,73.6,70.5,29.86,SW,236,0.0,0.0,90,0.00,,,0.00,VWS V14.01,2013-07-11 12:24:00,
2013-07-11 08:25:00,73.6,70.5,29.86,SW,236,0.0,0.0,90,0.00,,,0.00,VWS V14.01,2013-07-11 12:25:00,
2013-07-11 08:29:00,73.6,70.5,29.86,SW,236,0.0,0.0,90,0.00,,,0.00,VWS V14.01,2013-07-11 12:29:00,
2013-07-11 08:30:00,73.6,70.5,29.86,WSW,237,3.1,3.1,90,0.00,,,0.00,VWS V14.01,2013-07-11 12:30:00,
2013-07-11 08:34:00,73.6,70.5,29.86,SW,236,0.0,3.1,90,0.00,,,0.00,VWS V14.01,2013-07-11 12:34:00,
2013-07-11 08:35:00,73.6,70.5,29.86,SW,236,0.0,3.1,90,0.00,,,0.00,VWS V14.01,2013-07-11 12:35:00,
2013-07-11 08:39:00,73.6,70.5,29.86,SW,236,0.0,3.6,90,0.00,,,0.00,VWS V14.01,2013-07-11 12:39:00,
2013-07-11 08:40:00,73.6,70.5,29.86,SW,236,0.0,3.6,90,0.00,,,0.00,VWS V14.01,2013-07-11 12:40:00,
2013-07-11 08:44:00,73.6,70.5,29.89,SSW,193,0.0,3.6,90,0.00,,,0.00,VWS V14.01,2013-07-11 12:44:00,
2013-07-11 08:45:00,73.6,70.5,29.89,SSW,193,0.0,3.6,90,0.00,,,0.00,VWS V14.01,2013-07-11 12:45:00,
2013-07-11 08:49:00,73.6,70.5,29.89,South,188,0.0,3.6,90,0.00,,,0.00,VWS V14.01,2013-07-11 12:49:00,
2013-07-11 08:50:00,73.6,70.5,29.89,South,188,0.0,3.6,90,0.00,,,0.00,VWS V14.01,2013-07-11 12:50:00,
2013-07-11 08:54:00,73.6,70.5,29.89,South,188,0.0,0.0,90,0.00,,,0.00,VWS V14.01,2013-07-11 12:54:00,
2013-07-11 08:55:00,73.6,70.5,29.89,South,188,0.0,0.0,90,0.00,,,0.00,VWS V14.01,2013-07-11 12:55:00,
2013-07-11 08:59:00,73.6,70.5,29.89,South,188,0.0,0.0,90,0.00,,,0.00,VWS V14.01,2013-07-11 12:59:00,
2013-07-11 09:00:00,73.6,70.5,29.89,South,187,0.0,0.0,90,0.00,,,0.00,VWS V14.01,2013-07-11 13:00:00,
2013-07-11 09:04:00,73.6,70.5,29.89,South,188,0.0,0.0,90,0.00,,,0.00,VWS V14.01,2013-07-11 13:04:00,
2013-07-11 09:05:00,73.6,70.5,29.89,South,188,0.0,0.0,90,0.00,,,0.00,VWS V14.01,2013-07-11 13:05:00,
2013-07-11 09:09:00,73.6,70.5,29.89,South,188,0.0,0.0,90,0.00,,,0.00,VWS V14.01,2013-07-11 13:09:00,
2013-07-11 09:10:00,73.6,70.5,29.89,South,188,0.0,0.0,90,0.00,,,0.00,VWS V14.01,2013-07-11 13:10:00,
2013-07-11 09:15:00,73.6,70.5,29.89,South,188,0.0,2.2,90,0.00,,,0.00,VWS V14.01,2013-07-11 13:15:00,
2013-07-11 09:20:00,73.6,70.5,29.89,South,188,0.0,0.0,90,0.00,,,0.00,VWS V14.01,2013-07-11 13:20:00,
2013-07-11 09:25:00,73.6,70.5,29.89,South,188,0.0,0.0,90,0.00,,,0.00,VWS V14.01,2013-07-11 13:25:00,
2013-07-11 09:30:00,73.6,70.5,29.89,South,188,0.0,0.0,90,0.00,,,0.00,VWS V14.01,2013-07-11 13:30:00,
2013-07-11 09:35:00,73.6,70.5,29.89,South,188,0.0,0.0,90,0.00,,,0.00,VWS V14.01,2013-07-11 13:35:00,
2013-07-11 09:40:00,73.6,70.5,29.89,South,188,0.0,2.2,90,0.00,,,0.00,VWS V14.01,2013-07-11 13:40:00,
2013-07-11 09:45:00,73.6,70.5,29.89,SW,216,0.0,3.1,90,0.00,,,0.00,VWS V14.01,2013-07-11 13:45:00,
2013-07-11 09:50:00,73.6,70.5,29.89,SW,217,0.0,0.0,90,0.00,,,0.00,VWS V14.01,2013-07-11 13:50:00,
2013-07-11 09:55:00,73.6,70.5,29.89,SW,216,0.0,0.0,90,0.00,,,0.00,VWS V14.01,2013-07-11 13:55:00,
2013-07-11 10:00:00,73.6,70.5,29.89,SSW,210,0.0,0.0,90,0.00,,,0.00,VWS V14.01,2013-07-11 14:00:00,
2013-07-11 10:05:00,73.6,70.5,29.89,SSW,210,0.0,0.0,90,0.00,,,0.00,VWS V14.01,2013-07-11 14:05:00,
2013-07-11 10:10:00,73.6,70.5,29.89,WSW,245,0.0,3.1,90,0.00,,,0.00,VWS V14.01,2013-07-11 14:10:00,
2013-07-11 10:15:00,73.6,70.5,29.89,WSW,246,0.0,4.9,90,0.00,,,0.00,VWS V14.01,2013-07-11 14:15:00,
2013-07-11 10:16:00,73.6,70.5,29.89,WSW,246,0.0,0.0,90,0.00,,,0.00,VWS V14.01,2013-07-11 14:16:00,
2013-07-11 10:20:00,73.6,70.5,29.89,WSW,246,0.0,2.7,90,0.00,,,0.00,VWS V14.01,2013-07-11 14:20:00,
2013-07-11 10:21:00,73.6,70.5,29.89,WSW,246,0.0,0.0,90,0.00,,,0.00,VWS V14.01,2013-07-11 14:21:00,
2013-07-11 10:25:00,73.6,70.5,29.89,WSW,246,0.0,0.0,90,0.00,,,0.00,VWS V14.01,2013-07-11 14:25:00,
2013-07-11 10:26:00,73.6,70.5,29.89,WSW,246,0.0,0.0,90,0.00,,,0.00,VWS V14.01,2013-07-11 14:26:00,
2013-07-11 10:30:00,73.6,70.5,29.89,WSW,246,0.0,0.0,90,0.00,,,0.00,VWS V14.01,2013-07-11 14:30:00,
2013-07-11 10:32:00,73.6,70.5,29.89,WSW,246,0.0,0.0,90,0.00,,,0.00,VWS V14.01,2013-07-11 14:32:00,
2013-07-11 10:35:00,73.6,70.5,29.89,WSW,246,0.0,0.0,90,0.00,,,0.00,VWS V14.01,2013-07-11 14:35:00,
2013-07-11 10:37:00,73.6,70.5,29.89,WSW,245,2.7,2.7,90,0.00,,,0.00,VWS V14.01,2013-07-11 14:37:00,
2013-07-11 10:40:00,73.6,70.5,29.89,WSW,245,0.0,3.1,90,0.00,,,0.00,VWS V14.01,2013-07-11 14:40:00,
2013-07-11 10:42:00,73.6,70.5,29.89,WSW,245,0.0,0.0,90,0.00,,,0.00,VWS V14.01,2013-07-11 14:42:00,
2013-07-11 10:45:00,73.6,70.5,29.89,WSW,245,0.0,3.1,90,0.00,,,0.00,VWS V14.01,2013-07-11 14:45:00,
2013-07-11 10:47:00,73.6,70.5,29.89,WSW,245,0.0,0.0,90,0.00,,,0.00,VWS V14.01,2013-07-11 14:47:00,
2013-07-11 10:50:00,73.6,70.5,29.89,ESE,120,0.0,3.6,90,0.00,,,0.00,VWS V14.01,2013-07-11 14:50:00,
2013-07-11 10:52:00,73.6,70.5,29.89,SSW,205,0.0,2.7,90,0.00,,,0.00,VWS V14.01,2013-07-11 14:52:00,
2013-07-11 10:55:00,73.6,70.5,29.89,SSW,205,0.0,2.7,90,0.00,,,0.00,VWS V14.01,2013-07-11 14:55:00,
2013-07-11 10:58:00,73.6,70.5,29.89,South,190,4.0,4.0,90,0.00,,,0.00,VWS V14.01,2013-07-11 14:58:00,
2013-07-11 11:00:00,73.6,70.5,29.89,South,190,0.0,4.0,90,0.00,,,0.00,VWS V14.01,2013-07-11 15:00:00,
2013-07-11 11:03:00,73.6,70.5,29.89,South,184,0.0,3.1,90,0.00,,,0.00,VWS V14.01,2013-07-11 15:03:00,
2013-07-11 11:05:00,73.6,70.5,29.89,SW,225,3.1,3.1,90,0.00,,,0.00,VWS V14.01,2013-07-11 15:05:00,
2013-07-11 11:08:00,73.6,70.5,29.89,SW,225,0.0,4.0,90,0.00,,,0.00,VWS V14.01,2013-07-11 15:08:00,
2013-07-11 11:10:00,73.6,70.5,29.89,SW,225,2.7,4.0,90,0.00,,,0.00,VWS V14.01,2013-07-11 15:10:00,
2013-07-11 11:14:00,73.6,70.5,29.89,SW,224,0.0,2.7,90,0.00,,,0.00,VWS V14.01,2013-07-11 15:14:00,
2013-07-11 11:15:00,73.6,70.5,29.89,SW,224,0.0,2.7,90,0.00,,,0.00,VWS V14.01,2013-07-11 15:15:00,
2013-07-11 11:19:00,73.6,70.5,29.89,SW,224,0.0,0.0,90,0.00,,,0.00,VWS V14.01,2013-07-11 15:19:00,
2013-07-11 11:20:00,73.6,70.5,29.89,SW,224,0.0,0.0,90,0.00,,,0.00,VWS V14.01,2013-07-11 15:20:00,
2013-07-11 11:24:00,73.6,70.5,29.89,SW,224,0.0,2.7,90,0.00,,,0.00,VWS V14.01,2013-07-11 15:24:00,
2013-07-11 11:25:00,73.6,70.5,29.89,SW,224,0.0,2.7,90,0.00,,,0.00,VWS V14.01,2013-07-11 15:25:00,
2013-07-11 11:29:00,73.6,70.5,29.89,SW,224,0.0,0.0,90,0.00,,,0.00,VWS V14.01,2013-07-11 15:29:00,
2013-07-11 11:30:00,73.6,70.5,29.89,SW,224,0.0,0.0,90,0.00,,,0.00,VWS V14.01,2013-07-11 15:30:00,
2013-07-11 11:35:00,73.6,70.5,29.89,SW,224,0.0,0.0,90,0.00,,,0.00,VWS V14.01,2013-07-11 15:35:00,
2013-07-11 11:40:00,73.6,70.5,29.89,SSW,212,0.0,2.7,90,0.00,,,0.00,VWS V14.01,2013-07-11 15:40:00,
2013-07-11 11:45:00,73.6,70.5,29.89,SSW,196,0.0,4.0,90,0.00,,,0.00,VWS V14.01,2013-07-11 15:45:00,
2013-07-11 11:50:00,73.6,70.5,29.89,South,191,0.0,3.6,90,0.00,,,0.00,VWS V14.01,2013-07-11 15:50:00,
2013-07-11 11:55:00,73.6,70.5,29.89,South,191,0.0,2.7,90,0.00,,,0.00,VWS V14.01,2013-07-11 15:55:00,
2013-07-11 12:00:00,73.6,70.5,29.89,SSE,156,0.0,4.0,90,0.00,,,0.00,VWS V14.01,2013-07-11 16:00:00,
2013-07-11 12:05:00,73.6,70.5,29.89,West,259,0.0,3.6,90,0.00,,,0.00,VWS V14.01,2013-07-11 16:05:00,
2013-07-11 12:10:00,73.6,70.5,29.89,West,259,0.0,2.7,90,0.00,,,0.00,VWS V14.01,2013-07-11 16:10:00,
2013-07-11 12:15:00,73.6,70.5,29.89,West,259,3.1,3.1,90,0.00,,,0.00,VWS V14.01,2013-07-11 16:15:00,
2013-07-11 12:20:00,73.6,70.5,29.89,WSW,239,0.0,0.0,90,0.00,,,0.00,VWS V14.01,2013-07-11 16:20:00,
2013-07-11 12:25:00,73.6,70.5,29.89,WSW,239,0.0,0.0,90,0.00,,,0.00,VWS V14.01,2013-07-11 16:25:00,
2013-07-11 12:30:00,73.6,70.5,29.89,WSW,239,0.0,0.0,90,0.00,,,0.00,VWS V14.01,2013-07-11 16:30:00,
2013-07-11 12:35:00,73.6,70.5,29.89,WSW,239,0.0,0.0,90,0.00,,,0.00,VWS V14.01,2013-07-11 16:35:00,
2013-07-11 12:40:00,73.6,70.5,29.89,South,181,2.7,2.7,90,0.00,,,0.00,VWS V14.01,2013-07-11 16:40:00,
2013-07-11 12:45:00,73.6,70.5,29.89,South,178,0.0,3.6,90,0.00,,,0.00,VWS V14.01,2013-07-11 16:45:00,
2013-07-11 12:46:00,73.6,70.5,29.89,South,178,0.0,0.0,90,0.00,,,0.00,VWS V14.01,2013-07-11 16:46:00,
2013-07-11 12:50:00,73.6,70.5,29.89,WSW,247,5.4,5.4,90,0.00,,,0.00,VWS V14.01,2013-07-11 16:50:00,
2013-07-11 12:51:00,73.6,70.5,29.89,WSW,247,3.1,5.4,90,0.00,,,0.00,VWS V14.01,2013-07-11 16:51:00,
2013-07-11 12:55:00,73.6,70.5,29.89,SW,234,4.0,5.4,90,0.00,,,0.00,VWS V14.01,2013-07-11 16:55:00,
2013-07-11 12:56:00,73.6,70.5,29.89,SW,234,0.0,4.0,90,0.00,,,0.00,VWS V14.01,2013-07-11 16:56:00,
2013-07-11 13:00:00,73.6,70.5,29.89,WSW,247,0.0,4.9,90,0.00,,,0.00,VWS V14.01,2013-07-11 17:00:00,
2013-07-11 13:02:00,73.6,70.5,29.89,WSW,256,5.4,6.7,90,0.00,,,0.00,VWS V14.01,2013-07-11 17:02:00,
2013-07-11 13:05:00,73.6,70.5,29.89,WSW,256,0.0,6.7,90,0.00,,,0.00,VWS V14.01,2013-07-11 17:05:00,
2013-07-11 13:07:00,73.6,70.5,29.89,WSW,256,0.0,0.0,90,0.00,,,0.00,VWS V14.01,2013-07-11 17:07:00,
2013-07-11 13:10:00,73.6,70.5,29.89,SW,227,2.7,2.7,90,0.00,,,0.00,VWS V14.01,2013-07-11 17:10:00,
2013-07-11 13:12:00,73.6,70.5,29.89,West,268,3.6,4.9,90,0.00,,,0.00,VWS V14.01,2013-07-11 17:12:00,
2013-07-11 13:15:00,73.6,70.5,29.89,SW,236,3.6,5.8,90,0.00,,,0.00,VWS V14.01,2013-07-11 17:15:00,
2013-07-11 13:18:00,73.6,70.5,29.89,SW,236,0.0,4.0,90,0.00,,,0.00,VWS V14.01,2013-07-11 17:18:00,
2013-07-11 13:20:00,73.6,70.5,29.89,SSW,211,3.6,4.0,90,0.00,,,0.00,VWS V14.01,2013-07-11 17:20:00,
2013-07-11 13:23:00,73.6,70.5,29.89,SSE,156,2.2,4.0,90,0.00,,,0.00,VWS V14.01,2013-07-11 17:23:00,
2013-07-11 13:25:00,73.6,70.5,29.89,SSE,156,0.0,4.0,90,0.00,,,0.00,VWS V14.01,2013-07-11 17:25:00,
2013-07-11 13:28:00,73.6,70.5,29.89,WSW,241,2.7,4.9,90,0.00,,,0.00,VWS V14.01,2013-07-11 17:28:00,
2013-07-11 13:30:00,73.6,70.5,29.89,WSW,241,2.2,4.9,90,0.00,,,0.00,VWS V14.01,2013-07-11 17:30:00,
2013-07-11 13:33:00,80.1,65.4,29.89,WSW,246,3.1,3.6,61,0.00,,,0.00,VWS V14.01,2013-07-11 17:33:00,
2013-07-11 13:35:00,80.1,65.4,29.89,WSW,246,0.0,3.6,61,0.00,,,0.00,VWS V14.01,2013-07-11 17:35:00,
2013-07-11 13:38:00,80.1,65.4,29.89,WSW,246,0.0,2.2,61,0.00,,,0.00,VWS V14.01,2013-07-11 17:38:00,
2013-07-11 13:40:00,80.1,65.4,29.89,WSW,246,0.0,2.2,61,0.00,,,0.00,VWS V14.01,2013-07-11 17:40:00,
2013-07-11 13:44:00,81.0,65.8,29.89,SSW,204,0.0,3.1,60,0.00,,,0.00,VWS V14.01,2013-07-11 17:44:00,
2013-07-11 13:45:00,81.0,65.8,29.89,SSW,204,0.0,3.1,60,0.00,,,0.00,VWS V14.01,2013-07-11 17:45:00,
2013-07-11 13:49:00,81.0,65.8,29.89,South,184,0.0,3.1,60,0.00,,,0.00,VWS V14.01,2013-07-11 17:49:00,
2013-07-11 13:50:00,81.0,65.8,29.89,South,181,2.7,3.1,60,0.00,,,0.00,VWS V14.01,2013-07-11 17:50:00,
2013-07-11 13:54:00,81.0,65.8,29.89,South,181,0.0,2.7,60,0.00,,,0.00,VWS V14.01,2013-07-11 17:54:00,
2013-07-11 13:55:00,81.0,65.8,29.89,South,181,0.0,2.7,60,0.00,,,0.00,VWS V14.01,2013-07-11 17:55:00,
2013-07-11 13:59:00,81.0,65.8,29.89,South,181,0.0,2.7,60,0.00,,,0.00,VWS V14.01,2013-07-11 17:59:00,
2013-07-11 14:00:00,81.0,65.8,29.89,South,181,0.0,2.7,60,0.00,,,0.00,VWS V14.01,2013-07-11 18:00:00,
2013-07-11 14:04:00,81.0,65.8,29.89,South,181,0.0,0.0,60,0.00,,,0.00,VWS V14.01,2013-07-11 18:04:00,
2013-07-11 14:05:00,81.0,65.8,29.89,South,181,0.0,0.0,60,0.00,,,0.00,VWS V14.01,2013-07-11 18:05:00,
2013-07-11 14:10:00,81.0,65.8,29.89,South,181,0.0,3.1,60,0.00,,,0.00,VWS V14.01,2013-07-11 18:10:00,
2013-07-11 14:15:00,81.0,65.8,29.89,South,181,0.0,2.7,60,0.00,,,0.00,VWS V14.01,2013-07-11 18:15:00,
2013-07-11 14:20:00,81.0,65.8,29.89,South,181,0.0,0.0,60,0.00,,,0.00,VWS V14.01,2013-07-11 18:20:00,
2013-07-11 14:25:00,81.0,65.8,29.89,SSW,202,3.1,3.1,60,0.00,,,0.00,VWS V14.01,2013-07-11 18:25:00,
2013-07-11 14:30:00,81.0,65.8,29.89,ESE,116,0.0,3.6,60,0.00,,,0.00,VWS V14.01,2013-07-11 18:30:00,
2013-07-11 14:35:00,81.0,65.8,29.89,ESE,116,0.0,2.2,60,0.00,,,0.00,VWS V14.01,2013-07-11 18:35:00,
2013-07-11 14:40:00,81.0,65.8,29.89,ESE,116,0.0,0.0,60,0.00,,,0.00,VWS V14.01,2013-07-11 18:40:00,
2013-07-11 14:45:00,81.0,65.8,29.89,SW,217,0.0,3.6,60,0.00,,,0.00,VWS V14.01,2013-07-11 18:45:00,
2013-07-11 14:50:00,81.0,65.8,29.89,SW,217,0.0,0.0,60,0.00,,,0.00,VWS V14.01,2013-07-11 18:50:00,
2013-07-11 14:55:00,81.0,65.8,29.89,WSW,247,0.0,3.6,60,0.00,,,0.00,VWS V14.01,2013-07-11 18:55:00,
2013-07-11 15:00:00,81.0,65.8,29.89,WSW,247,0.0,0.0,60,0.00,,,0.00,VWS V14.01,2013-07-11 19:00:00,
2013-07-11 15:05:00,81.0,65.8,29.89,WSW,247,0.0,0.0,60,0.00,,,0.00,VWS V14.01,2013-07-11 19:05:00,
2013-07-11 15:10:00,81.0,65.8,29.89,WSW,247,0.0,3.6,60,0.00,,,0.00,VWS V14.01,2013-07-11 19:10:00,
2013-07-11 15:15:00,81.0,65.8,29.89,SSW,212,0.0,2.7,60,0.00,,,0.00,VWS V14.01,2013-07-11 19:15:00,
2013-07-11 15:20:00,81.0,65.8,29.89,SSW,212,0.0,3.1,60,0.00,,,0.00,VWS V14.01,2013-07-11 19:20:00,
2013-07-11 15:25:00,81.0,65.8,29.89,SSW,212,2.7,2.7,60,0.00,,,0.00,VWS V14.01,2013-07-11 19:25:00,
2013-07-11 15:30:00,81.0,65.8,29.89,SW,217,0.0,0.0,60,0.00,,,0.00,VWS V14.01,2013-07-11 19:30:00,
2013-07-11 15:35:00,81.0,65.8,29.89,SW,217,0.0,0.0,60,0.00,,,0.00,VWS V14.01,2013-07-11 19:35:00,
2013-07-11 15:40:00,81.0,65.8,29.89,SW,218,0.0,0.0,60,0.00,,,0.00,VWS V14.01,2013-07-11 19:40:00,
2013-07-11 15:45:00,81.0,65.8,29.89,WSW,237,0.0,2.7,60,0.00,,,0.00,VWS V14.01,2013-07-11 19:45:00,
2013-07-11 15:50:00,81.0,65.8,29.89,WSW,237,0.0,0.0,60,0.00,,,0.00,VWS V14.01,2013-07-11 19:50:00,
2013-07-11 15:55:00,81.1,63.5,29.89,WSW,237,0.0,0.0,55,0.00,,,0.00,VWS V14.01,2013-07-11 19:55:00,
2013-07-11 16:00:00,81.1,63.5,29.89,SW,217,2.7,2.7,55,0.00,,,0.00,VWS V14.01,2013-07-11 20:00:00,
2013-07-11 16:05:00,81.1,63.5,29.89,SW,217,0.0,0.0,55,0.00,,,0.00,VWS V14.01,2013-07-11 20:05:00,
2013-07-11 16:10:00,81.1,63.5,29.89,SSW,200,0.0,0.0,55,0.00,,,0.00,VWS V14.01,2013-07-11 20:10:00,
2013-07-11 16:15:00,81.1,63.5,29.86,SSW,207,0.0,3.6,55,0.00,,,0.00,VWS V14.01,2013-07-11 20:15:00,
2013-07-11 16:16:00,81.1,63.5,29.86,SSW,207,0.0,0.0,55,0.00,,,0.00,VWS V14.01,2013-07-11 20:16:00,
2013-07-11 16:20:00,81.1,63.5,29.86,South,170,0.0,2.2,55,0.00,,,0.00,VWS V14.01,2013-07-11 20:20:00,
2013-07-11 16:21:00,81.1,63.5,29.86,South,170,0.0,2.2,55,0.00,,,0.00,VWS V14.01,2013-07-11 20:21:00,
2013-07-11 16:25:00,81.1,63.5,29.86,South,170,0.0,2.2,55,0.00,,,0.00,VWS V14.01,2013-07-11 20:25:00,
2013-07-11 16:26:00,81.1,63.5,29.86,South,170,0.0,0.0,55,0.00,,,0.00,VWS V14.01,2013-07-11 20:26:00,
2013-07-11 16:30:00,81.1,63.5,29.86,South,170,0.0,2.2,55,0.00,,,0.00,VWS V14.01,2013-07-11 20:30:00,
2013-07-11 16:31:00,81.1,63.5,29.86,South,170,0.0,0.0,55,0.00,,,0.00,VWS V14.01,2013-07-11 20:31:00,
2013-07-11 16:35:00,81.1,63.5,29.86,South,170,0.0,2.7,55,0.00,,,0.00,VWS V14.01,2013-07-11 20:35:00,
2013-07-11 16:36:00,81.1,63.5,29.86,South,170,0.0,0.0,55,0.00,,,0.00,VWS V14.01,2013-07-11 20:36:00,
2013-07-11 16:40:00,81.1,63.5,29.86,SW,232,3.1,3.1,55,0.00,,,0.00,VWS V14.01,2013-07-11 20:40:00,
2013-07-11 16:41:00,81.1,63.5,29.86,SW,232,0.0,3.1,55,0.00,,,0.00,VWS V14.01,2013-07-11 20:41:00,
2013-07-11 16:45:00,81.1,63.5,29.86,SW,232,0.0,3.1,55,0.00,,,0.00,VWS V14.01,2013-07-11 20:45:00,
2013-07-11 16:47:00,81.1,63.5,29.86,SW,232,0.0,0.0,55,0.00,,,0.00,VWS V14.01,2013-07-11 20:47:00,
2013-07-11 16:50:00,81.1,63.5,29.86,SW,232,0.0,0.0,55,0.00,,,0.00,VWS V14.01,2013-07-11 20:50:00,
2013-07-11 16:52:00,81.1,63.5,29.86,SW,232,0.0,0.0,55,0.00,,,0.00,VWS V14.01,2013-07-11 20:52:00,
2013-07-11 16:55:00,81.1,63.5,29.86,SW,232,0.0,0.0,55,0.00,,,0.00,VWS V14.01,2013-07-11 20:55:00,
2013-07-11 16:57:00,80.2,65.6,29.86,SW,232,0.0,0.0,61,0.00,,,0.00,VWS V14.01,2013-07-11 20:57:00,
2013-07-11 17:00:00,80.2,65.6,29.86,SW,232,0.0,0.0,61,0.00,,,0.00,VWS V14.01,2013-07-11 21:00:00,
2013-07-11 17:02:00,80.1,64.5,29.86,SSW,208,0.0,2.2,59,0.00,,,0.00,VWS V14.01,2013-07-11 21:02:00,
2013-07-11 17:05:00,79.9,64.3,29.86,SSW,208,0.0,2.2,59,0.00,,,0.00,VWS V14.01,2013-07-11 21:05:00,
2013-07-11 17:07:00,80.1,64.0,29.86,SSW,208,0.0,2.2,58,0.00,,,0.00,VWS V14.01,2013-07-11 21:07:00,
2013-07-11 17:10:00,80.1,64.0,29.86,SSW,208,0.0,2.2,58,0.00,,,0.00,VWS V14.01,2013-07-11 21:10:00,
2013-07-11 17:13:00,80.2,64.6,29.89,SSW,208,0.0,0.0,59,0.00,,,0.00,VWS V14.01,2013-07-11 21:13:00,
2013-07-11 17:15:00,80.2,65.1,29.89,SSW,208,0.0,0.0,60,0.00,,,0.00,VWS V14.01,2013-07-11 21:15:00,
2013-07-11 17:18:00,79.9,64.8,29.89,SSW,208,0.0,0.0,60,0.00,,,0.00,VWS V14.01,2013-07-11 21:18:00,
2013-07-11 17:20:00,79.5,64.4,29.89,SSW,208,0.0,0.0,60,0.00,,,0.00,VWS V14.01,2013-07-11 21:20:00,
2013-07-11 17:23:00,79.3,64.3,29.89,SSW,208,0.0,0.0,60,0.00,,,0.00,VWS V14.01,2013-07-11 21:23:00,
2013-07-11 17:25:00,79.2,64.1,29.89,SSW,208,0.0,0.0,60,0.00,,,0.00,VWS V14.01,2013-07-11 21:25:00,
2013-07-11 17:28:00,79.0,64.4,29.89,SSW,208,0.0,0.0,61,0.00,,,0.00,VWS V14.01,2013-07-11 21:28:00,
2013-07-11 17:30:00,79.0,64.9,29.89,SSW,208,0.0,0.0,62,0.00,,,0.00,VWS V14.01,2013-07-11 21:30:00,
2013-07-11 17:33:00,79.0,65.3,29.89,SSW,208,0.0,0.0,63,0.00,,,0.00,VWS V14.01,2013-07-11 21:33:00,
2013-07-11 17:35:00,79.0,65.3,29.89,SSW,208,0.0,0.0,63,0.00,,,0.00,VWS V14.01,2013-07-11 21:35:00,
2013-07-11 17:38:00,78.8,64.7,29.89,SSW,208,0.0,0.0,62,0.00,,,0.00,VWS V14.01,2013-07-11 21:38:00,
2013-07-11 17:40:00,78.8,64.7,29.89,SSW,208,0.0,0.0,62,0.00,,,0.00,VWS V14.01,2013-07-11 21:40:00,
2013-07-11 17:44:00,78.8,64.7,29.89,SSW,208,0.0,0.0,62,0.00,,,0.00,VWS V14.01,2013-07-11 21:44:00,
2013-07-11 17:45:00,78.8,64.7,29.89,SSW,208,0.0,0.0,62,0.00,,,0.00,VWS V14.01,2013-07-11 21:45:00,
2013-07-11 17:49:00,78.8,65.2,29.89,SSW,208,0.0,0.0,63,0.00,,,0.00,VWS V14.01,2013-07-11 21:49:00,
2013-07-11 17:50:00,78.8,65.2,29.89,SSW,208,0.0,0.0,63,0.00,,,0.00,VWS V14.01,2013-07-11 21:50:00,
2013-07-11 17:54:00,78.6,65.4,29.89,SSW,208,0.0,0.0,64,0.00,,,0.00,VWS V14.01,2013-07-11 21:54:00,
2013-07-11 17:55:00,78.6,65.4,29.89,SSW,208,0.0,0.0,64,0.00,,,0.00,VWS V14.01,2013-07-11 21:55:00,
2013-07-11 17:59:00,78.6,65.4,29.89,SSW,208,0.0,0.0,64,0.00,,,0.00,VWS V14.01,2013-07-11 21:59:00,
2013-07-11 18:00:00,78.6,65.4,29.89,SSW,208,0.0,0.0,64,0.00,,,0.00,VWS V14.01,2013-07-11 22:00:00,
2013-07-11 18:04:00,78.6,65.9,29.89,SSW,208,0.0,0.0,65,0.00,,,0.00,VWS V14.01,2013-07-11 22:04:00,
2013-07-11 18:05:00,78.6,65.9,29.89,SSW,208,0.0,0.0,65,0.00,,,0.00,VWS V14.01,2013-07-11 22:05:00,
2013-07-11 18:10:00,78.8,66.1,29.89,SSW,208,0.0,2.2,65,0.00,,,0.00,VWS V14.01,2013-07-11 22:10:00,
2013-07-11 18:15:00,78.3,66.4,29.89,SSW,208,0.0,0.0,67,0.00,,,0.00,VWS V14.01,2013-07-11 22:15:00,
2013-07-11 18:20:00,78.1,65.4,29.89,SSW,208,0.0,0.0,65,0.00,,,0.00,VWS V14.01,2013-07-11 22:20:00,
2013-07-11 18:25:00,77.7,65.5,29.89,SSW,208,0.0,0.0,66,0.00,,,0.00,VWS V14.01,2013-07-11 22:25:00,
2013-07-11 18:30:00,77.5,65.3,29.89,SSW,208,0.0,0.0,66,0.00,,,0.00,VWS V14.01,2013-07-11 22:30:00,
2013-07-11 18:35:00,77.4,65.1,29.89,SSW,208,0.0,0.0,66,0.00,,,0.00,VWS V14.01,2013-07-11 22:35:00,
2013-07-11 18:40:00,77.2,64.9,29.89,SSW,208,0.0,0.0,66,0.00,,,0.00,VWS V14.01,2013-07-11 22:40:00,
2013-07-11 18:45:00,76.8,65.0,29.89,SSW,207,0.0,0.0,67,0.00,,,0.00,VWS V14.01,2013-07-11 22:45:00,
2013-07-11 18:50:00,76.8,65.0,29.89,SSW,207,0.0,0.0,67,0.00,,,0.00,VWS V14.01,2013-07-11 22:50:00,
2013-07-11 18:51:00,76.8,65.0,29.89,SSW,207,0.0,0.0,67,0.00,,,0.00,VWS V14.01,2013-07-11 22:51:00,
2013-07-11 18:55:00,76.6,64.9,29.89,SSW,207,0.0,0.0,67,0.00,,,0.00,VWS V14.01,2013-07-11 22:55:00,
2013-07-11 18:56:00,76.6,64.4,29.89,SSW,207,0.0,0.0,66,0.00,,,0.00,VWS V14.01,2013-07-11 22:56:00,
2013-07-11 19:00:00,76.5,64.7,29.89,SSW,207,0.0,0.0,67,0.00,,,0.00,VWS V14.01,2013-07-11 23:00:00,
2013-07-11 19:01:00,76.3,64.5,29.89,SSW,207,0.0,0.0,67,0.00,,,0.00,VWS V14.01,2013-07-11 23:01:00,
2013-07-11 19:05:00,76.3,64.9,29.89,SSW,207,0.0,0.0,68,0.00,,,0.00,VWS V14.01,2013-07-11 23:05:00,
2013-07-11 19:06:00,76.3,64.5,29.89,SSW,207,0.0,0.0,67,0.00,,,0.00,VWS V14.01,2013-07-11 23:06:00,
2013-07-11 19:10:00,76.1,63.9,29.89,SSW,207,0.0,0.0,66,0.00,,,0.00,VWS V14.01,2013-07-11 23:10:00,
2013-07-11 19:11:00,75.9,63.8,29.92,SSW,207,0.0,0.0,66,0.00,,,0.00,VWS V14.01,2013-07-11 23:11:00,
2013-07-11 19:15:00,75.7,63.6,29.92,SSW,207,0.0,0.0,66,0.00,,,0.00,VWS V14.01,2013-07-11 23:15:00,
2013-07-11 19:16:00,75.6,63.4,29.92,SSW,207,0.0,0.0,66,0.00,,,0.00,VWS V14.01,2013-07-11 23:16:00,
2013-07-11 19:20:00,75.6,63.4,29.92,SSW,207,0.0,0.0,66,0.00,,,0.00,VWS V14.01,2013-07-11 23:20:00,
2013-07-11 19:22:00,75.4,63.2,29.92,SSW,207,0.0,0.0,66,0.00,,,0.00,VWS V14.01,2013-07-11 23:22:00,
2013-07-11 19:25:00,75.4,63.2,29.92,SSW,207,0.0,0.0,66,0.00,,,0.00,VWS V14.01,2013-07-11 23:25:00,
2013-07-11 19:27:00,75.2,63.1,29.92,SSW,207,0.0,0.0,66,0.00,,,0.00,VWS V14.01,2013-07-11 23:27:00,
2013-07-11 19:30:00,75.2,63.5,29.92,SSW,207,0.0,0.0,67,0.00,,,0.00,VWS V14.01,2013-07-11 23:30:00,
2013-07-11 19:32:00,75.0,63.8,29.92,SSW,207,0.0,0.0,68,0.00,,,0.00,VWS V14.01,2013-07-11 23:32:00,
2013-07-11 19:35:00,74.8,64.0,29.92,SSW,207,0.0,0.0,69,0.00,,,0.00,VWS V14.01,2013-07-11 23:35:00,
2013-07-11 19:37:00,74.8,64.0,29.92,SSW,207,0.0,0.0,69,0.00,,,0.00,VWS V14.01,2013-07-11 23:37:00,
2013-07-11 19:40:00,74.7,63.8,29.92,SSW,207,0.0,0.0,69,0.00,,,0.00,VWS V14.01,2013-07-11 23:40:00,
2013-07-11 19:42:00,74.7,63.8,29.92,SSW,207,0.0,0.0,69,0.00,,,0.00,VWS V14.01,2013-07-11 23:42:00,
2013-07-11 19:45:00,74.5,63.7,29.92,SSW,207,0.0,0.0,69,0.00,,,0.00,VWS V14.01,2013-07-11 23:45:00,
2013-07-11 19:47:00,74.3,63.5,29.92,SSW,207,0.0,0.0,69,0.00,,,0.00,VWS V14.01,2013-07-11 23:47:00,
2013-07-11 19:50:00,74.1,63.3,29.92,SSW,207,0.0,0.0,69,0.00,,,0.00,VWS V14.01,2013-07-11 23:50:00,
2013-07-11 19:53:00,73.9,63.1,29.92,SSW,207,0.0,0.0,69,0.00,,,0.00,VWS V14.01,2013-07-11 23:53:00,
2013-07-11 19:55:00,73.9,63.1,29.92,SSW,207,0.0,0.0,69,0.00,,,0.00,VWS V14.01,2013-07-11 23:55:00,
2013-07-11 19:58:00,73.9,63.1,29.92,SSW,207,0.0,0.0,69,0.00,,,0.00,VWS V14.01,2013-07-11 23:58:00,
2013-07-11 20:00:00,73.8,63.0,29.92,SSW,207,0.0,0.0,69,0.00,,,0.00,VWS V14.01,2013-07-12 00:00:00,
2013-07-11 20:03:00,73.6,62.4,29.92,SSW,207,0.0,0.0,68,0.00,,,0.00,VWS V14.01,2013-07-12 00:03:00,
2013-07-11 20:05:00,73.6,62.0,29.92,SSW,207,0.0,0.0,67,0.00,,,0.00,VWS V14.01,2013-07-12 00:05:00,
2013-07-11 20:08:00,73.4,61.8,29.92,SSW,207,0.0,0.0,67,0.00,,,0.00,VWS V14.01,2013-07-12 00:08:00,
2013-07-11 20:10:00,73.4,61.8,29.92,SSW,207,0.0,0.0,67,0.00,,,0.00,VWS V14.01,2013-07-12 00:10:00,
2013-07-11 20:14:00,73.0,62.3,29.92,SSW,207,0.0,0.0,69,0.00,,,0.00,VWS V14.01,2013-07-12 00:14:00,
2013-07-11 20:15:00,73.0,62.3,29.92,SSW,207,0.0,0.0,69,0.00,,,0.00,VWS V14.01,2013-07-12 00:15:00,
2013-07-11 20:20:00,72.9,62.1,29.92,SSW,207,0.0,0.0,69,0.00,,,0.00,VWS V14.01,2013-07-12 00:20:00,
2013-07-11 20:25:00,72.7,61.9,29.92,SSW,207,0.0,0.0,69,0.00,,,0.00,VWS V14.01,2013-07-12 00:25:00,
2013-07-11 20:30:00,72.7,62.3,29.92,SSW,207,0.0,0.0,70,0.00,,,0.00,VWS V14.01,2013-07-12 00:30:00,
2013-07-11 20:35:00,72.5,62.2,29.92,SSW,207,0.0,0.0,70,0.00,,,0.00,VWS V14.01,2013-07-12 00:35:00,
2013-07-11 20:40:00,72.1,62.2,29.92,SSW,207,0.0,0.0,71,0.00,,,0.00,VWS V14.01,2013-07-12 00:40:00,
2013-07-11 20:45:00,72.1,61.8,29.92,SSW,207,0.0,0.0,70,0.00,,,0.00,VWS V14.01,2013-07-12 00:45:00,
2013-07-11 20:46:00,72.1,61.8,29.92,SSW,207,0.0,0.0,70,0.00,,,0.00,VWS V14.01,2013-07-12 00:46:00,
2013-07-11 20:50:00,72.0,61.7,29.92,SSW,207,0.0,0.0,70,0.00,,,0.00,VWS V14.01,2013-07-12 00:50:00,
2013-07-11 20:51:00,72.0,61.7,29.92,SSW,207,0.0,0.0,70,0.00,,,0.00,VWS V14.01,2013-07-12 00:51:00,
2013-07-11 20:55:00,71.8,61.9,29.92,SSW,207,0.0,0.0,71,0.00,,,0.00,VWS V14.01,2013-07-12 00:55:00,
2013-07-11 20:56:00,71.8,61.9,29.92,SSW,207,0.0,0.0,71,0.00,,,0.00,VWS V14.01,2013-07-12 00:56:00,
2013-07-11 21:00:00,71.8,61.1,29.92,SSW,208,0.0,3.6,69,0.00,,,0.00,VWS V14.01,2013-07-12 01:00:00,
2013-07-11 21:02:00,71.8,61.1,29.92,SSW,208,0.0,0.0,69,0.00,,,0.00,VWS V14.01,2013-07-12 01:02:00,
2013-07-11 21:05:00,71.6,60.9,29.92,SSW,208,0.0,0.0,69,0.00,,,0.00,VWS V14.01,2013-07-12 01:05:00,
2013-07-11 21:07:00,71.6,60.9,29.92,SSW,208,0.0,0.0,69,0.00,,,0.00,VWS V14.01,2013-07-12 01:07:00,
2013-07-11 21:10:00,71.4,61.1,29.92,SSW,208,0.0,0.0,70,0.00,,,0.00,VWS V14.01,2013-07-12 01:10:00,
2013-07-11 21:12:00,71.4,60.7,29.92,SSW,208,0.0,0.0,69,0.00,,,0.00,VWS V14.01,2013-07-12 01:12:00,
2013-07-11 21:15:00,71.2,60.6,29.92,SSW,208,0.0,0.0,69,0.00,,,0.00,VWS V14.01,2013-07-12 01:15:00,
2013-07-11 21:17:00,71.2,60.6,29.92,SSW,208,0.0,0.0,69,0.00,,,0.00,VWS V14.01,2013-07-12 01:17:00,
2013-07-11 21:20:00,71.2,60.2,29.92,SSW,208,0.0,0.0,68,0.00,,,0.00,VWS V14.01,2013-07-12 01:20:00,
2013-07-11 21:22:00,71.4,59.5,29.92,SSW,208,0.0,2.2,66,0.00,,,0.00,VWS V14.01,2013-07-12 01:22:00,
2013-07-11 21:25:00,71.2,59.7,29.92,SSW,208,0.0,2.2,67,0.00,,,0.00,VWS V14.01,2013-07-12 01:25:00,
2013-07-11 21:27:00,71.2,59.7,29.92,SSW,208,0.0,0.0,67,0.00,,,0.00,VWS V14.01,2013-07-12 01:27:00,
2013-07-11 21:30:00,71.2,59.7,29.92,SSW,208,0.0,0.0,67,0.00,,,0.00,VWS V14.01,2013-07-12 01:30:00,
2013-07-11 21:33:00,71.1,59.6,29.92,SSW,208,0.0,0.0,67,0.00,,,0.00,VWS V14.01,2013-07-12 01:33:00,
2013-07-11 21:35:00,71.1,60.0,29.92,SSW,208,0.0,0.0,68,0.00,,,0.00,VWS V14.01,2013-07-12 01:35:00,
2013-07-11 21:38:00,70.9,60.2,29.92,SSW,208,0.0,0.0,69,0.00,,,0.00,VWS V14.01,2013-07-12 01:38:00,
2013-07-11 21:40:00,70.9,60.2,29.92,SSW,208,0.0,0.0,69,0.00,,,0.00,VWS V14.01,2013-07-12 01:40:00,
2013-07-11 21:43:00,70.9,60.2,29.95,SSW,208,0.0,0.0,69,0.00,,,0.00,VWS V14.01,2013-07-12 01:43:00,
2013-07-11 21:45:00,70.9,60.2,29.95,SSW,208,0.0,0.0,69,0.00,,,0.00,VWS V14.01,2013-07-12 01:45:00,
2013-07-11 21:48:00,70.7,60.0,29.95,SSW,208,0.0,0.0,69,0.00,,,0.00,VWS V14.01,2013-07-12 01:48:00,
2013-07-11 21:50:00,70.7,60.0,29.95,SSW,208,0.0,0.0,69,0.00,,,0.00,VWS V14.01,2013-07-12 01:50:00,
2013-07-11 21:53:00,70.9,60.2,29.95,SSW,208,0.0,0.0,69,0.00,,,0.00,VWS V14.01,2013-07-12 01:53:00,
2013-07-11 21:55:00,70.9,59.8,29.95,SSW,208,0.0,0.0,68,0.00,,,0.00,VWS V14.01,2013-07-12 01:55:00,
2013-07-11 21:59:00,70.9,59.8,29.95,SSW,208,0.0,0.0,68,0.00,,,0.00,VWS V14.01,2013-07-12 01:59:00,
2013-07-11 22:00:00,70.9,59.4,29.95,SSW,208,0.0,0.0,67,0.00,,,0.00,VWS V14.01,2013-07-12 02:00:00,
2013-07-11 22:04:00,70.9,59.8,29.95,SSW,208,0.0,0.0,68,0.00,,,0.00,VWS V14.01,2013-07-12 02:04:00,
2013-07-11 22:05:00,70.9,59.8,29.95,SSW,208,0.0,0.0,68,0.00,,,0.00,VWS V14.01,2013-07-12 02:05:00,
2013-07-11 22:09:00,70.9,60.2,29.95,SSW,208,0.0,0.0,69,0.00,,,0.00,VWS V14.01,2013-07-12 02:09:00,
2013-07-11 22:10:00,70.9,60.2,29.95,SSW,208,0.0,0.0,69,0.00,,,0.00,VWS V14.01,2013-07-12 02:10:00,
2013-07-11 22:14:00,70.9,60.2,29.95,SSW,208,0.0,0.0,69,0.00,,,0.00,VWS V14.01,2013-07-12 02:14:00,
2013-07-11 22:15:00,70.9,60.2,29.95,SSW,208,0.0,0.0,69,0.00,,,0.00,VWS V14.01,2013-07-12 02:15:00,
2013-07-11 22:19:00,70.9,60.6,29.95,SSW,208,0.0,0.0,70,0.00,,,0.00,VWS V14.01,2013-07-12 02:19:00,
2013-07-11 22:20:00,70.7,60.5,29.95,SSW,208,0.0,0.0,70,0.00,,,0.00,VWS V14.01,2013-07-12 02:20:00,
2013-07-11 22:24:00,70.7,60.8,29.95,SSW,208,0.0,0.0,71,0.00,,,0.00,VWS V14.01,2013-07-12 02:24:00,
2013-07-11 22:25:00,70.7,60.8,29.95,SSW,208,0.0,0.0,71,0.00,,,0.00,VWS V14.01,2013-07-12 02:25:00,
2013-07-11 22:29:00,70.7,60.5,29.95,SSW,208,0.0,0.0,70,0.00,,,0.00,VWS V14.01,2013-07-12 02:29:00,
2013-07-11 22:30:00,70.7,60.5,29.95,SSW,208,0.0,0.0,70,0.00,,,0.00,VWS V14.01,2013-07-12 02:30:00,
2013-07-11 22:34:00,70.7,60.0,29.95,SSW,208,0.0,0.0,69,0.00,,,0.00,VWS V14.01,2013-07-12 02:34:00,
2013-07-11 22:35:00,70.7,60.0,29.95,SSW,208,0.0,0.0,69,0.00,,,0.00,VWS V14.01,2013-07-12 02:35:00,
2013-07-11 22:39:00,70.5,60.3,29.95,SSW,208,0.0,0.0,70,0.00,,,0.00,VWS V14.01,2013-07-12 02:39:00,
2013-07-11 22:40:00,70.5,60.3,29.95,SSW,208,0.0,0.0,70,0.00,,,0.00,VWS V14.01,2013-07-12 02:40:00,
2013-07-11 22:44:00,70.5,59.9,29.95,SSW,208,0.0,3.1,69,0.00,,,0.00,VWS V14.01,2013-07-12 02:44:00,
2013-07-11 22:45:00,70.5,59.9,29.95,SSW,208,0.0,3.1,69,0.00,,,0.00,VWS V14.01,2013-07-12 02:45:00,
2013-07-11 22:50:00,70.5,59.9,29.95,SSW,208,0.0,2.7,69,0.00,,,0.00,VWS V14.01,2013-07-12 02:50:00,
2013-07-11 22:55:00,70.3,59.7,29.95,SSW,208,0.0,0.0,69,0.00,,,0.00,VWS V14.01,2013-07-12 02:55:00,
2013-07-11 23:00:00,70.3,60.1,29.95,SSW,208,0.0,0.0,70,0.00,,,0.00,VWS V14.01,2013-07-12 03:00:00,
2013-07-11 23:05:00,70.3,59.7,29.95,SSW,208,0.0,0.0,69,0.00,,,0.00,VWS V14.01,2013-07-12 03:05:00,
2013-07-11 23:10:00,70.5,59.5,29.95,SSW,208,0.0,0.0,68,0.00,,,0.00,VWS V14.01,2013-07-12 03:10:00,
2013-07-11 23:15:00,70.3,58.9,29.95,SSW,208,0.0,0.0,67,0.00,,,0.00,VWS V14.01,2013-07-12 03:15:00,
2013-07-11 23:20:00,70.2,57.9,29.95,SSW,208,0.0,0.0,65,0.00,,,0.00,VWS V14.01,2013-07-12 03:20:00,
2013-07-11 23:25:00,70.0,57.3,29.95,SSW,208,0.0,0.0,64,0.00,,,0.00,VWS V14.01,2013-07-12 03:25:00,
2013-07-11 23:30:00,70.0,57.3,29.95,SSW,208,0.0,0.0,64,0.00,,,0.00,VWS V14.01,2013-07-12 03:30:00,
2013-07-11 23:35:00,69.8,57.1,29.95,SSW,208,0.0,0.0,64,0.00,,,0.00,VWS V14.01,2013-07-12 03:35:00,
2013-07-11 23:40:00,69.8,57.5,29.95,SSW,208,0.0,0.0,65,0.00,,,0.00,VWS V14.01,2013-07-12 03:40:00,
2013-07-11 23:45:00,69.8,57.5,29.95,SSW,208,0.0,0.0,65,0.00,,,0.00,VWS V14.01,2013-07-12 03:45:00,
2013-07-11 23:50:00,69.8,57.9,29.95,SSW,208,0.0,0.0,66,0.00,,,0.00,VWS V14.01,2013-07-12 03:50:00,
2013-07-11 23:51:00,69.8,58.4,29.95,SSW,208,0.0,0.0,67,0.00,,,0.00,VWS V14.01,2013-07-12 03:51:00,
2013-07-11 23:55:00,69.8,58.4,29.95,SSW,208,0.0,0.0,67,0.00,,,0.00,VWS V14.01,2013-07-12 03:55:00,
2013-07-11 23:56:00,69.8,58.8,29.95,SSW,208,0.0,0.0,68,0.00,,,0.00,VWS V14.01,2013-07-12 03:56:00,